createdAt,value
2018-09-30T00:00:24.910Z,100810.10
2018-09-30T00:02:53.350Z,100812.29
2018-09-30T00:05:22.127Z,100801.23
2018-09-30T00:07:50.723Z,100801.67
2018-09-30T00:10:19.135Z,100798.17
2018-09-30T00:12:47.559Z,100796.87
2018-09-30T00:15:16.206Z,100793.16
2018-09-30T00:17:44.638Z,100785.16
2018-09-30T00:20:13.123Z,100786.53
2018-09-30T00:22:41.599Z,100788.34
2018-09-30T00:25:15.483Z,100779.70
2018-09-30T00:27:43.931Z,100777.86
2018-09-30T00:30:12.410Z,100785.37
2018-09-30T00:32:40.907Z,100787.28
2018-09-30T00:35:09.475Z,100783.25
2018-09-30T00:37:37.927Z,100779.66
2018-09-30T00:40:06.532Z,100778.73
2018-09-30T00:42:35.011Z,100780.09
2018-09-30T00:45:03.455Z,100774.41
2018-09-30T00:47:32.191Z,100766.78
2018-09-30T00:50:00.719Z,100766.46
2018-09-30T00:52:29.221Z,100775.20
2018-09-30T00:54:57.756Z,100774.47
2018-09-30T00:57:26.214Z,100765.70
2018-09-30T00:59:54.664Z,100765.30
2018-09-30T01:02:23.126Z,100768.42
2018-09-30T01:04:51.658Z,100758.97
2018-09-30T01:07:20.068Z,100766.90
2018-09-30T01:09:48.518Z,100756.91
2018-09-30T01:12:17.039Z,100758.98
2018-09-30T01:14:45.430Z,100752.02
2018-09-30T01:17:13.945Z,100754.11
2018-09-30T01:19:42.461Z,100754.11
2018-09-30T01:22:10.903Z,100756.41
2018-09-30T01:24:39.299Z,100758.32
2018-09-30T01:27:07.782Z,100755.70
2018-09-30T01:29:36.211Z,100756.27
2018-09-30T01:32:04.767Z,100766.60
2018-09-30T01:34:33.278Z,100768.28
2018-09-30T01:37:01.750Z,100769.41
2018-09-30T01:39:30.250Z,100753.54
2018-09-30T01:41:58.739Z,100756.31
2018-09-30T01:44:27.334Z,100750.65
2018-09-30T01:46:55.910Z,100749.38
2018-09-30T01:49:24.426Z,100741.95
2018-09-30T01:52:04.027Z,100738.03
2018-09-30T01:54:32.483Z,100746.28
2018-09-30T01:57:00.963Z,100747.06
2018-09-30T01:59:29.405Z,100746.83
2018-09-30T02:01:57.867Z,100745.75
2018-09-30T02:04:26.346Z,100737.77
2018-09-30T02:06:54.886Z,100742.73
2018-09-30T02:09:23.458Z,100739.36
2018-09-30T02:11:51.970Z,100743.71
2018-09-30T02:14:20.399Z,100749.74
2018-09-30T02:16:48.947Z,100744.00
2018-09-30T02:19:17.411Z,100738.26
2018-09-30T02:21:45.950Z,100736.27
2018-09-30T02:24:14.382Z,100728.85
2018-09-30T02:26:43.051Z,100724.69
2018-09-30T02:29:11.456Z,100720.85
2018-09-30T02:31:40.020Z,100713.97
2018-09-30T02:34:08.452Z,100717.98
2018-09-30T02:36:36.874Z,100710.16
2018-09-30T02:39:07.024Z,100704.02
2018-09-30T02:41:35.423Z,100706.58
2018-09-30T02:44:03.974Z,100693.39
2018-09-30T02:46:32.486Z,100696.25
2018-09-30T02:49:00.950Z,100693.65
2018-09-30T02:51:29.510Z,100695.06
2018-09-30T02:53:57.971Z,100691.81
2018-09-30T02:56:26.431Z,100689.76
2018-09-30T02:58:54.966Z,100681.02
2018-09-30T03:01:23.569Z,100679.16
2018-09-30T03:03:52.027Z,100681.39
2018-09-30T03:06:25.802Z,100687.14
2018-09-30T03:08:59.427Z,100683.02
2018-09-30T03:11:27.872Z,100679.15
2018-09-30T03:13:56.303Z,100677.66
2018-09-30T03:16:24.735Z,100672.73
2018-09-30T03:18:53.263Z,100673.77
2018-09-30T03:21:21.847Z,100662.70
2018-09-30T03:23:50.307Z,100661.11
2018-09-30T03:26:18.942Z,100659.83
2018-09-30T03:28:47.383Z,100650.58
2018-09-30T03:31:15.811Z,100650.64
2018-09-30T03:33:44.355Z,100651.89
2018-09-30T03:36:12.832Z,100652.20
2018-09-30T03:38:41.295Z,100654.74
2018-09-30T03:41:09.747Z,100649.25
2018-09-30T03:43:38.291Z,100646.36
2018-09-30T03:46:06.847Z,100645.38
2018-09-30T03:48:35.367Z,100652.77
2018-09-30T03:51:03.852Z,100651.59
2018-09-30T03:53:32.355Z,100661.36
2018-09-30T03:56:00.864Z,100661.06
2018-09-30T03:58:29.327Z,100649.88
2018-09-30T04:00:58.062Z,100649.53
2018-09-30T04:03:26.756Z,100645.20
2018-09-30T04:05:55.407Z,100647.16
2018-09-30T04:08:24.062Z,100641.11
2018-09-30T04:10:52.526Z,100638.62
2018-09-30T04:13:21.003Z,100633.97
2018-09-30T04:15:49.435Z,100632.83
2018-09-30T04:18:18.019Z,100632.38
2018-09-30T04:20:46.511Z,100632.36
2018-09-30T04:23:15.015Z,100631.42
2018-09-30T04:25:43.515Z,100628.27
2018-09-30T04:28:11.978Z,100627.09
2018-09-30T04:30:40.489Z,100630.98
2018-09-30T04:33:09.029Z,100625.23
2018-09-30T04:35:37.483Z,100622.61
2018-09-30T04:38:06.192Z,100621.84
2018-09-30T04:40:34.671Z,100631.37
2018-09-30T04:43:03.083Z,100638.91
2018-09-30T04:45:31.472Z,100636.53
2018-09-30T04:48:00.227Z,100627.22
2018-09-30T04:50:28.727Z,100626.96
2018-09-30T04:52:57.259Z,100617.77
2018-09-30T04:55:25.888Z,100614.73
2018-09-30T04:57:54.418Z,100624.26
2018-09-30T05:00:22.896Z,100625.16
2018-09-30T05:02:51.410Z,100628.60
2018-09-30T05:05:19.907Z,100623.70
2018-09-30T05:07:48.374Z,100627.17
2018-09-30T05:10:17.023Z,100633.25
2018-09-30T05:12:45.531Z,100627.86
2018-09-30T05:15:13.964Z,100626.77
2018-09-30T05:17:42.422Z,100619.70
2018-09-30T05:20:10.868Z,100613.02
2018-09-30T05:22:39.473Z,100608.38
2018-09-30T05:25:08.241Z,100608.22
2018-09-30T05:27:36.662Z,100606.16
2018-09-30T05:30:05.670Z,100603.60
2018-09-30T05:32:34.211Z,100602.81
2018-09-30T05:35:02.627Z,100608.38
2018-09-30T05:37:31.032Z,100606.07
2018-09-30T05:39:59.727Z,100610.34
2018-09-30T05:42:28.176Z,100605.84
2018-09-30T05:44:56.647Z,100603.19
2018-09-30T05:47:25.127Z,100603.22
2018-09-30T05:49:53.637Z,100601.50
2018-09-30T05:52:22.116Z,100602.53
2018-09-30T05:54:50.989Z,100600.13
2018-09-30T05:57:19.501Z,100602.27
2018-09-30T05:59:48.011Z,100615.52
2018-09-30T06:02:16.569Z,100617.80
2018-09-30T06:04:45.127Z,100617.83
2018-09-30T06:07:13.740Z,100619.42
2018-09-30T06:09:42.647Z,100621.17
2018-09-30T06:12:11.567Z,100625.82
2018-09-30T06:14:40.071Z,100631.25
2018-09-30T06:17:10.449Z,100616.78
2018-09-30T06:19:39.296Z,100615.09
2018-09-30T06:22:07.989Z,100618.80
2018-09-30T06:24:36.474Z,100614.86
2018-09-30T06:27:04.918Z,100615.37
2018-09-30T06:29:33.435Z,100610.19
2018-09-30T06:32:01.979Z,100615.97
2018-09-30T06:34:30.432Z,100629.22
2018-09-30T06:36:58.839Z,100621.02
2018-09-30T06:39:27.589Z,100622.80
2018-09-30T06:41:58.263Z,100620.23
2018-09-30T06:44:26.829Z,100622.45
2018-09-30T06:46:55.416Z,100630.77
2018-09-30T06:49:23.899Z,100621.66
2018-09-30T06:51:52.795Z,100623.48
2018-09-30T06:54:21.194Z,100621.34
2018-09-30T06:56:50.041Z,100619.66
2018-09-30T06:59:18.747Z,100625.41
2018-09-30T07:01:47.235Z,100621.47
2018-09-30T07:04:15.776Z,100618.89
2018-09-30T07:06:44.504Z,100611.47
2018-09-30T07:09:12.970Z,100621.15
2018-09-30T07:11:41.418Z,100615.50
2018-09-30T07:14:10.264Z,100609.77
2018-09-30T07:16:38.798Z,100599.70
2018-09-30T07:19:07.375Z,100591.80
2018-09-30T07:21:35.866Z,100589.61
2018-09-30T07:24:04.402Z,100586.97
2018-09-30T07:26:32.835Z,100588.28
2018-09-30T07:29:01.518Z,100579.45
2018-09-30T07:31:29.959Z,100580.30
2018-09-30T07:33:58.641Z,100570.16
2018-09-30T07:36:27.515Z,100578.02
2018-09-30T07:38:55.986Z,100573.63
2018-09-30T07:41:24.452Z,100563.94
2018-09-30T07:43:53.186Z,100561.23
2018-09-30T07:46:21.731Z,100562.49
2018-09-30T07:48:50.401Z,100556.30
2018-09-30T07:51:19.164Z,100550.46
2018-09-30T07:53:51.534Z,100550.55
2018-09-30T07:56:20.374Z,100542.05
2018-09-30T07:58:48.939Z,100544.55
2018-09-30T08:01:17.390Z,100543.95
2018-09-30T08:03:46.060Z,100542.25
2018-09-30T08:06:14.739Z,100542.39
2018-09-30T08:08:43.283Z,100533.91
2018-09-30T08:11:11.800Z,100545.83
2018-09-30T08:13:40.262Z,100548.46
2018-09-30T08:16:08.819Z,100553.13
2018-09-30T08:18:37.449Z,100547.83
2018-09-30T08:21:06.326Z,100549.95
2018-09-30T08:23:35.369Z,100543.72
2018-09-30T08:26:03.988Z,100554.31
2018-09-30T08:28:32.416Z,100540.16
2018-09-30T08:31:00.915Z,100538.39
2018-09-30T08:33:29.641Z,100531.09
2018-09-30T08:36:03.444Z,100534.42
2018-09-30T08:38:33.471Z,100525.30
2018-09-30T08:41:03.082Z,100520.73
2018-09-30T08:43:33.418Z,100523.48
2018-09-30T08:46:02.130Z,100521.22
2018-09-30T08:48:33.382Z,100525.75
2018-09-30T08:51:02.418Z,100515.05
2018-09-30T08:53:31.084Z,100509.48
2018-09-30T08:55:59.857Z,100502.38
2018-09-30T08:58:29.319Z,100504.95
2018-09-30T09:00:57.986Z,100502.58
2018-09-30T09:03:27.017Z,100493.15
2018-09-30T09:05:55.943Z,100495.19
2018-09-30T09:08:24.372Z,100497.02
2018-09-30T09:10:52.963Z,100496.20
2018-09-30T09:13:21.602Z,100497.19
2018-09-30T09:15:50.023Z,100497.47
2018-09-30T09:18:18.443Z,100497.03
2018-09-30T09:20:46.890Z,100492.88
2018-09-30T09:23:15.382Z,100497.50
2018-09-30T09:25:45.694Z,100491.96
2018-09-30T09:28:15.691Z,100499.58
2018-09-30T09:30:44.954Z,100491.67
2018-09-30T09:33:13.725Z,100486.39
2018-09-30T09:35:45.190Z,100484.14
2018-09-30T09:38:13.674Z,100482.66
2018-09-30T09:40:43.830Z,100477.71
2018-09-30T09:43:13.397Z,100475.06
2018-09-30T09:45:42.114Z,100473.34
2018-09-30T09:48:10.594Z,100470.66
2018-09-30T09:50:39.360Z,100462.83
2018-09-30T09:53:07.951Z,100462.48
2018-09-30T09:55:36.575Z,100454.36
2018-09-30T09:58:05.377Z,100451.90
2018-09-30T10:00:39.056Z,100446.70
2018-09-30T10:03:07.666Z,100449.43
2018-09-30T10:05:36.401Z,100445.81
2018-09-30T10:08:05.344Z,100441.77
2018-09-30T10:10:33.946Z,100446.77
2018-09-30T10:13:02.615Z,100433.19
2018-09-30T10:15:30.987Z,100430.39
2018-09-30T10:17:59.546Z,100420.88
2018-09-30T10:20:28.196Z,100424.34
2018-09-30T10:22:56.689Z,100418.47
2018-09-30T10:25:25.191Z,100417.60
2018-09-30T10:27:53.902Z,100412.03
2018-09-30T10:30:22.342Z,100406.55
2018-09-30T10:32:51.123Z,100410.45
2018-09-30T10:35:19.543Z,100401.50
2018-09-30T10:37:48.126Z,100400.16
2018-09-30T10:40:16.568Z,100403.23
2018-09-30T10:42:45.071Z,100400.63
2018-09-30T10:45:13.751Z,100399.56
2018-09-30T10:47:42.463Z,100387.42
2018-09-30T10:50:12.101Z,100380.97
2018-09-30T10:52:40.694Z,100381.95
2018-09-30T10:55:09.428Z,100384.38
2018-09-30T10:57:37.866Z,100383.17
2018-09-30T11:00:06.494Z,100376.61
2018-09-30T11:02:35.100Z,100370.16
2018-09-30T11:05:03.590Z,100373.34
2018-09-30T11:07:33.394Z,100365.59
2018-09-30T11:10:02.162Z,100360.02
2018-09-30T11:12:30.663Z,100355.38
2018-09-30T11:14:59.199Z,100350.92
2018-09-30T11:17:27.759Z,100350.52
2018-09-30T11:19:56.296Z,100344.94
2018-09-30T11:22:24.779Z,100339.28
2018-09-30T11:24:53.496Z,100333.74
2018-09-30T11:27:21.988Z,100325.51
2018-09-30T11:29:50.622Z,100324.48
2018-09-30T11:32:19.347Z,100316.28
2018-09-30T11:34:47.975Z,100312.19
2018-09-30T11:37:16.511Z,100307.67
2018-09-30T11:39:46.307Z,100300.47
2018-09-30T11:42:14.811Z,100294.27
2018-09-30T11:44:43.312Z,100289.76
2018-09-30T11:47:12.202Z,100280.06
2018-09-30T11:49:41.220Z,100276.56
2018-09-30T11:52:09.791Z,100275.18
2018-09-30T11:54:39.810Z,100270.20
2018-09-30T11:57:09.349Z,100260.16
2018-09-30T11:59:38.679Z,100261.59
2018-09-30T12:02:07.752Z,100255.79
2018-09-30T12:04:36.207Z,100254.06
2018-09-30T12:07:04.807Z,100249.17
2018-09-30T12:09:33.547Z,100251.34
2018-09-30T12:12:02.066Z,100239.95
2018-09-30T12:14:30.490Z,100242.95
2018-09-30T12:16:59.130Z,100233.03
2018-09-30T12:19:27.703Z,100229.81
2018-09-30T12:21:56.143Z,100224.92
2018-09-30T12:24:24.714Z,100227.66
2018-09-30T12:26:53.191Z,100216.13
2018-09-30T12:29:21.844Z,100208.58
2018-09-30T12:31:50.319Z,100204.14
2018-09-30T12:34:18.914Z,100197.09
2018-09-30T12:36:47.343Z,100191.77
2018-09-30T12:39:16.111Z,100195.00
2018-09-30T12:41:44.518Z,100188.27
2018-09-30T12:44:13.175Z,100192.32
2018-09-30T12:46:42.071Z,100182.58
2018-09-30T12:49:10.560Z,100182.03
2018-09-30T12:51:39.300Z,100187.92
2018-09-30T12:54:07.824Z,100188.69
2018-09-30T12:56:36.269Z,100178.59
2018-09-30T12:59:04.732Z,100173.58
2018-09-30T13:01:33.275Z,100170.32
2018-09-30T13:04:01.795Z,100168.97
2018-09-30T13:06:30.210Z,100165.00
2018-09-30T13:08:59.281Z,100166.03
2018-09-30T13:11:27.843Z,100166.83
2018-09-30T13:13:56.296Z,100164.91
2018-09-30T13:16:25.065Z,100161.58
2018-09-30T13:18:53.526Z,100159.41
2018-09-30T13:21:22.066Z,100154.61
2018-09-30T13:23:51.178Z,100160.92
2018-09-30T13:26:19.687Z,100154.01
2018-09-30T13:28:48.231Z,100151.80
2018-09-30T13:31:16.853Z,100150.68
2018-09-30T13:33:45.459Z,100138.67
2018-09-30T13:36:13.959Z,100144.02
2018-09-30T13:38:42.546Z,100133.86
2018-09-30T13:41:11.179Z,100138.97
2018-09-30T13:43:39.569Z,100138.30
2018-09-30T13:46:08.251Z,100129.83
2018-09-30T13:48:36.755Z,100126.38
2018-09-30T13:51:05.634Z,100120.91
2018-09-30T13:53:34.631Z,100118.81
2018-09-30T13:56:03.179Z,100119.76
2018-09-30T13:58:31.655Z,100114.01
2018-09-30T14:01:00.183Z,100115.16
2018-09-30T14:03:28.619Z,100111.80
2018-09-30T14:05:57.283Z,100112.53
2018-09-30T14:08:25.745Z,100107.66
2018-09-30T14:10:54.203Z,100101.69
2018-09-30T14:13:22.679Z,100090.17
2018-09-30T14:15:51.290Z,100092.64
2018-09-30T14:18:19.794Z,100089.41
2018-09-30T14:20:48.287Z,100087.36
2018-09-30T14:23:16.728Z,100083.98
2018-09-30T14:25:45.228Z,100075.42
2018-09-30T14:28:13.717Z,100075.33
2018-09-30T14:30:42.323Z,100076.50
2018-09-30T14:33:10.795Z,100078.60
2018-09-30T14:35:39.227Z,100074.56
2018-09-30T14:38:07.804Z,100065.97
2018-09-30T14:40:36.242Z,100065.14
2018-09-30T14:43:04.776Z,100062.14
2018-09-30T14:45:33.347Z,100063.87
2018-09-30T14:48:01.859Z,100059.22
2018-09-30T14:50:30.331Z,100053.44
2018-09-30T14:52:59.091Z,100052.30
2018-09-30T14:55:27.709Z,100044.85
2018-09-30T14:57:56.311Z,100046.20
2018-09-30T15:00:24.839Z,100042.02
2018-09-30T15:02:53.369Z,100038.16
2018-09-30T15:05:21.871Z,100036.22
2018-09-30T15:07:50.494Z,100035.77
2018-09-30T15:10:19.162Z,100038.56
2018-09-30T15:12:47.743Z,100032.50
2018-09-30T15:15:16.467Z,100035.49
2018-09-30T15:17:44.991Z,100031.45
2018-09-30T15:20:13.542Z,100025.21
2018-09-30T15:22:42.030Z,100025.61
2018-09-30T15:25:11.613Z,100016.58
2018-09-30T15:27:40.219Z,100011.94
2018-09-30T15:30:09.127Z,100010.69
2018-09-30T15:32:37.723Z,100003.06
2018-09-30T15:35:06.216Z,100002.80
2018-09-30T15:37:34.958Z,99995.72
2018-09-30T15:40:03.523Z,99997.62
2018-09-30T15:42:32.078Z,99992.55
2018-09-30T15:45:00.614Z,99988.09
2018-09-30T15:47:29.180Z,99988.51
2018-09-30T15:49:57.691Z,99988.47
2018-09-30T15:52:26.346Z,99983.68
2018-09-30T15:54:54.865Z,99979.30
2018-09-30T15:57:23.469Z,99984.02
2018-09-30T15:59:51.964Z,99986.23
2018-09-30T16:02:20.422Z,99982.88
2018-09-30T16:04:48.957Z,99986.80
2018-09-30T16:07:17.529Z,99984.40
2018-09-30T16:09:46.035Z,99974.05
2018-09-30T16:12:14.450Z,99977.98
2018-09-30T16:14:42.932Z,99977.98
2018-09-30T16:17:11.370Z,99983.28
2018-09-30T16:19:39.895Z,99974.44
2018-09-30T16:22:08.470Z,99976.95
2018-09-30T16:24:37.139Z,99979.30
2018-09-30T16:27:05.591Z,99979.73
2018-09-30T16:29:34.467Z,99977.02
2018-09-30T16:32:03.011Z,99978.33
2018-09-30T16:34:31.528Z,99978.95
2018-09-30T16:37:00.147Z,99975.70
2018-09-30T16:39:28.688Z,99978.39
2018-09-30T16:41:57.235Z,99984.62
2018-09-30T16:44:25.984Z,99984.11
2018-09-30T16:46:54.459Z,99983.02
2018-09-30T16:49:23.311Z,99982.44
2018-09-30T16:51:51.965Z,99983.63
2018-09-30T16:54:24.910Z,99974.91
2018-09-30T16:56:53.798Z,99986.75
2018-09-30T16:59:22.923Z,99989.58
2018-09-30T17:01:51.481Z,99980.42
2018-09-30T17:04:20.035Z,99980.05
2018-09-30T17:06:48.647Z,99986.19
2018-09-30T17:09:18.562Z,99984.87
2018-09-30T17:11:47.393Z,99988.84
2018-09-30T17:14:16.439Z,99994.80
2018-09-30T17:16:45.058Z,99993.06
2018-09-30T17:19:14.549Z,99995.95
2018-09-30T17:21:43.318Z,99997.20
2018-09-30T17:24:11.775Z,100001.23
2018-09-30T17:26:40.491Z,100005.16
2018-09-30T17:29:09.530Z,100002.09
2018-09-30T17:31:40.555Z,100009.77
2018-09-30T17:34:09.848Z,100002.20
2018-09-30T17:36:38.449Z,100004.88
2018-09-30T17:39:08.714Z,100005.41
2018-09-30T17:41:37.238Z,100005.31
2018-09-30T17:44:05.874Z,100005.97
2018-09-30T17:46:34.499Z,100008.14
2018-09-30T17:49:03.136Z,100009.18
2018-09-30T17:51:31.650Z,100004.36
2018-09-30T17:54:01.261Z,99998.66
2018-09-30T17:56:29.759Z,100000.36
2018-09-30T17:58:58.464Z,100000.77
2018-09-30T18:01:27.266Z,99998.62
2018-09-30T18:03:56.460Z,99999.95
2018-09-30T18:06:25.336Z,100005.02
2018-09-30T18:08:54.267Z,100003.33
2018-09-30T18:11:22.764Z,99999.66
2018-09-30T18:13:51.622Z,99998.03
2018-09-30T18:16:20.521Z,99998.20
2018-09-30T18:18:48.963Z,100006.09
2018-09-30T18:21:17.797Z,100016.09
2018-09-30T18:23:46.936Z,100018.33
2018-09-30T18:26:15.471Z,100024.58
2018-09-30T18:28:44.007Z,100023.63
2018-09-30T18:31:12.827Z,100019.04
2018-09-30T18:33:41.780Z,100015.88
2018-09-30T18:36:10.327Z,100017.67
2018-09-30T18:38:39.358Z,100020.67
2018-09-30T18:41:08.705Z,100019.29
2018-09-30T18:43:38.220Z,100019.41
2018-09-30T18:46:06.865Z,100010.99
2018-09-30T18:48:36.131Z,100012.90
2018-09-30T18:51:05.972Z,100009.98
2018-09-30T18:53:35.407Z,100008.44
2018-09-30T18:56:04.230Z,100017.57
2018-09-30T18:58:33.015Z,100020.63
2018-09-30T19:01:02.404Z,100011.58
2018-09-30T19:03:31.920Z,100016.73
2018-09-30T19:06:01.936Z,100016.63
2018-09-30T19:08:30.659Z,100012.42
2018-09-30T19:11:00.841Z,100019.12
2018-09-30T19:13:29.880Z,100016.78
2018-09-30T19:15:59.924Z,100011.27
2018-09-30T19:18:29.126Z,100012.21
2018-09-30T19:20:58.522Z,100013.16
2018-09-30T19:23:27.204Z,100014.11
2018-09-30T19:25:56.422Z,100010.31
2018-09-30T19:28:26.043Z,100009.67
2018-09-30T19:30:54.677Z,100006.45
2018-09-30T19:33:23.224Z,100019.00
2018-09-30T19:35:51.811Z,100007.81
2018-09-30T19:38:21.851Z,100004.83
2018-09-30T19:40:50.375Z,100001.15
2018-09-30T19:43:19.011Z,100006.33
2018-09-30T19:45:48.026Z,100003.66
2018-09-30T19:48:16.568Z,100001.70
2018-09-30T19:50:45.106Z,100001.84
2018-09-30T19:53:13.704Z,100002.09
2018-09-30T19:55:42.319Z,99999.97
2018-09-30T19:58:11.359Z,100000.85
2018-09-30T20:00:41.692Z,100011.78
2018-09-30T20:03:10.528Z,100021.79
2018-09-30T20:05:39.133Z,100016.50
2018-09-30T20:08:07.839Z,100010.58
2018-09-30T20:10:36.392Z,100017.27
2018-09-30T20:13:04.887Z,100016.56
2018-09-30T20:15:33.471Z,100009.70
2018-09-30T20:18:01.982Z,100011.76
2018-09-30T20:20:30.749Z,100010.66
2018-09-30T20:22:59.242Z,100010.17
2018-09-30T20:25:28.911Z,100007.48
2018-09-30T20:27:57.708Z,100012.97
2018-09-30T20:30:26.120Z,100009.62
2018-09-30T20:32:54.666Z,100004.47
2018-09-30T20:35:23.493Z,100008.88
2018-09-30T20:37:52.552Z,100008.83
2018-09-30T20:40:21.749Z,100019.53
2018-09-30T20:42:50.183Z,100018.63
2018-09-30T20:45:19.225Z,100019.66
2018-09-30T20:47:48.236Z,100018.64
2018-09-30T20:50:17.111Z,100011.97
2018-09-30T20:52:45.617Z,100023.98
2018-09-30T20:55:14.479Z,100018.09
2018-09-30T20:57:42.962Z,100017.06
2018-09-30T21:00:11.916Z,100016.05
2018-09-30T21:02:40.627Z,100026.13
2018-09-30T21:05:20.447Z,100022.33
2018-09-30T21:07:49.859Z,100032.39
2018-09-30T21:10:18.651Z,100025.34
2018-09-30T21:12:47.315Z,100028.96
2018-09-30T21:15:16.638Z,100027.45
2018-09-30T21:17:45.249Z,100029.61
2018-09-30T21:20:14.159Z,100037.80
2018-09-30T21:22:44.890Z,100036.64
2018-09-30T21:25:13.547Z,100030.33
2018-09-30T21:27:42.059Z,100033.27
2018-09-30T21:30:10.524Z,100037.63
2018-09-30T21:32:39.391Z,100031.61
2018-09-30T21:35:07.939Z,100028.39
2018-09-30T21:37:36.439Z,100026.13
2018-09-30T21:40:05.123Z,100026.73
2018-09-30T21:42:33.894Z,100024.13
2018-09-30T21:45:02.375Z,100024.55
2018-09-30T21:47:30.882Z,100023.75
2018-09-30T21:49:59.450Z,100024.89
2018-09-30T21:52:27.993Z,100026.91
2018-09-30T21:54:56.437Z,100024.07
2018-09-30T21:57:24.982Z,100022.99
2018-09-30T21:59:53.452Z,100023.00
2018-09-30T22:02:21.903Z,100022.30
2018-09-30T22:04:50.498Z,100021.73
2018-09-30T22:07:19.031Z,100013.47
2018-09-30T22:09:47.431Z,100013.70
2018-09-30T22:12:15.871Z,100014.68
2018-09-30T22:14:44.315Z,100015.99
2018-09-30T22:17:12.767Z,100027.53
2018-09-30T22:19:41.460Z,100021.77
2018-09-30T22:22:10.101Z,100029.55
2018-09-30T22:24:38.567Z,100029.80
2018-09-30T22:27:07.259Z,100029.81
2018-09-30T22:29:35.802Z,100030.28
2018-09-30T22:32:04.378Z,100038.42
2018-09-30T22:34:33.039Z,100038.10
2018-09-30T22:37:01.547Z,100040.41
2018-09-30T22:39:30.039Z,100038.25
2018-09-30T22:41:58.709Z,100029.58
2018-09-30T22:44:27.151Z,100036.45
2018-09-30T22:46:55.612Z,100033.29
2018-09-30T22:49:24.336Z,100038.46
2018-09-30T22:51:52.843Z,100029.45
2018-09-30T22:54:21.338Z,100042.61
2018-09-30T22:56:49.848Z,100036.02
2018-09-30T22:59:18.323Z,100034.97
2018-09-30T23:01:46.858Z,100039.76
2018-09-30T23:04:15.321Z,100047.99
2018-09-30T23:06:43.849Z,100046.12
2018-09-30T23:09:12.291Z,100045.39
2018-09-30T23:11:40.912Z,100040.63
2018-09-30T23:14:09.483Z,100043.06
2018-09-30T23:16:38.068Z,100047.41
2018-09-30T23:19:06.747Z,100051.54
2018-09-30T23:21:35.171Z,100048.14
2018-09-30T23:24:03.690Z,100048.90
2018-09-30T23:26:32.489Z,100050.03
2018-09-30T23:29:00.943Z,100048.81
2018-09-30T23:31:29.379Z,100051.27
2018-09-30T23:33:57.900Z,100045.83
2018-09-30T23:36:26.307Z,100041.66
2018-09-30T23:38:54.842Z,100044.34
2018-09-30T23:41:23.390Z,100044.79
2018-09-30T23:43:51.788Z,100040.98
2018-09-30T23:46:20.223Z,100035.59
2018-09-30T23:48:48.971Z,100039.97
2018-09-30T23:51:17.495Z,100044.65
2018-09-30T23:53:46.027Z,100045.42
2018-09-30T23:56:14.679Z,100054.95
2018-09-30T23:58:43.194Z,100052.15
